METAR Data
IDs: Format: Raw Decoded Include TAF

Data at: 1825 UTC 06 Jul 2020

METAR for:KRYW (Lago Vista/Allen Arp, TX, US)
Text:KRYW 061815Z AUTO 18008KT 10SM BKN110 30/21 A2997 RMK AO2 T02950210
Temperature: 29.5°C ( 85°F)
Dewpoint: 21.0°C ( 70°F) [RH = 60%]
Pressure (altimeter):29.97 inches Hg (1015.0 mb)
Winds:from the S (180 degrees) at 9 MPH (8 knots; 4.1 m/s)
Visibility:10 or more sm (16+ km)
Ceiling:11000 feet AGL
Clouds: broken clouds at 11000 feet AGL
QC Flag:automated observation with no human augmentation